sensor_id;sensor_type;location;lat;lon;timestamp;pressure;altitude;pressure_sealevel;temperature;humidity
70815;BME280;58428;49.478;10.986;2022-08-03T00:01:25;98457.03;;;20.42;56.30
70815;BME280;58428;49.478;10.986;2022-08-03T00:03:51;98455.91;;;20.46;56.04
70815;BME280;58428;49.478;10.986;2022-08-03T00:06:16;98459.81;;;20.49;55.84
70815;BME280;58428;49.478;10.986;2022-08-03T00:08:44;98453.91;;;20.43;57.06
70815;BME280;58428;49.478;10.986;2022-08-03T00:11:09;98457.06;;;20.45;56.04
70815;BME280;58428;49.478;10.986;2022-08-03T00:13:34;98450.34;;;20.36;56.38
70815;BME280;58428;49.478;10.986;2022-08-03T00:16:00;98453.84;;;20.26;57.58
70815;BME280;58428;49.478;10.986;2022-08-03T00:18:25;98454.66;;;20.23;56.52
70815;BME280;58428;49.478;10.986;2022-08-03T00:20:50;98463.31;;;20.29;56.24
70815;BME280;58428;49.478;10.986;2022-08-03T00:23:16;98446.41;;;20.27;56.47
70815;BME280;58428;49.478;10.986;2022-08-03T00:25:41;98457.78;;;20.25;56.36
70815;BME280;58428;49.478;10.986;2022-08-03T00:28:07;98453.00;;;20.08;57.83
70815;BME280;58428;49.478;10.986;2022-08-03T00:30:33;98456.56;;;20.12;56.79
70815;BME280;58428;49.478;10.986;2022-08-03T00:32:59;98458.47;;;20.05;57.28
70815;BME280;58428;49.478;10.986;2022-08-03T00:35:24;98467.06;;;19.93;57.86
70815;BME280;58428;49.478;10.986;2022-08-03T00:37:50;98463.06;;;19.84;58.07
70815;BME280;58428;49.478;10.986;2022-08-03T00:40:17;98465.72;;;19.70;59.54
70815;BME280;58428;49.478;10.986;2022-08-03T00:45:19;98460.59;;;19.65;58.65
70815;BME280;58428;49.478;10.986;2022-08-03T00:47:44;98460.59;;;19.68;58.33
70815;BME280;58428;49.478;10.986;2022-08-03T00:50:10;98462.97;;;19.70;58.66
70815;BME280;58428;49.478;10.986;2022-08-03T00:52:36;98458.31;;;19.77;57.90
70815;BME280;58428;49.478;10.986;2022-08-03T00:55:02;98462.69;;;19.82;57.51
70815;BME280;58428;49.478;10.986;2022-08-03T00:57:29;98469.75;;;19.83;57.18
70815;BME280;58428;49.478;10.986;2022-08-03T00:59:54;98473.69;;;19.85;56.96
70815;BME280;58428;49.478;10.986;2022-08-03T01:02:20;98465.06;;;19.87;56.78
70815;BME280;58428;49.478;10.986;2022-08-03T01:04:45;98465.44;;;19.85;56.79
70815;BME280;58428;49.478;10.986;2022-08-03T01:07:16;98473.28;;;19.83;56.78
70815;BME280;58428;49.478;10.986;2022-08-03T01:09:59;98464.59;;;19.78;56.97
70815;BME280;58428;49.478;10.986;2022-08-03T01:12:47;98457.13;;;19.75;57.11
70815;BME280;58428;49.478;10.986;2022-08-03T01:17:59;98455.41;;;19.50;57.94
70815;BME280;58428;49.478;10.986;2022-08-03T01:20:31;98460.06;;;19.42;57.70
70815;BME280;58428;49.478;10.986;2022-08-03T01:28:37;98463.81;;;19.20;58.74
70815;BME280;58428;49.478;10.986;2022-08-03T01:31:07;98470.94;;;19.28;57.60
70815;BME280;58428;49.478;10.986;2022-08-03T01:33:37;98466.22;;;19.29;57.58
70815;BME280;58428;49.478;10.986;2022-08-03T01:36:08;98457.16;;;19.21;58.83
70815;BME280;58428;49.478;10.986;2022-08-03T01:38:41;98461.38;;;19.12;59.71
70815;BME280;58428;49.478;10.986;2022-08-03T01:41:10;98458.59;;;19.05;59.90
70815;BME280;58428;49.478;10.986;2022-08-03T01:43:39;98461.69;;;19.00;59.30
70815;BME280;58428;49.478;10.986;2022-08-03T01:46:06;98462.81;;;18.96;59.48
70815;BME280;58428;49.478;10.986;2022-08-03T01:48:35;98453.34;;;18.90;60.11
70815;BME280;58428;49.478;10.986;2022-08-03T01:51:02;98449.00;;;18.89;59.77
70815;BME280;58428;49.478;10.986;2022-08-03T01:53:31;98454.94;;;18.94;59.43
70815;BME280;58428;49.478;10.986;2022-08-03T01:55:59;98454.25;;;19.01;58.94
70815;BME280;58428;49.478;10.986;2022-08-03T01:58:27;98448.41;;;19.06;58.61
70815;BME280;58428;49.478;10.986;2022-08-03T02:00:54;98449.97;;;19.03;59.17
70815;BME280;58428;49.478;10.986;2022-08-03T02:03:23;98449.19;;;19.03;58.67
70815;BME280;58428;49.478;10.986;2022-08-03T02:05:51;98450.28;;;18.98;59.29
70815;BME280;58428;49.478;10.986;2022-08-03T02:08:18;98444.78;;;18.95;59.63
70815;BME280;58428;49.478;10.986;2022-08-03T02:10:46;98441.97;;;18.88;59.25
70815;BME280;58428;49.478;10.986;2022-08-03T02:13:14;98438.78;;;18.82;59.72
70815;BME280;58428;49.478;10.986;2022-08-03T02:15:42;98446.66;;;18.87;58.93
70815;BME280;58428;49.478;10.986;2022-08-03T02:18:09;98441.50;;;18.82;60.07
70815;BME280;58428;49.478;10.986;2022-08-03T02:20:37;98448.91;;;18.79;60.00
70815;BME280;58428;49.478;10.986;2022-08-03T02:23:03;98444.22;;;18.76;60.45
70815;BME280;58428;49.478;10.986;2022-08-03T02:25:31;98449.69;;;18.79;59.65
70815;BME280;58428;49.478;10.986;2022-08-03T02:28:05;98443.47;;;18.82;59.64
70815;BME280;58428;49.478;10.986;2022-08-03T02:30:36;98449.69;;;18.79;60.17
70815;BME280;58428;49.478;10.986;2022-08-03T02:33:04;98440.69;;;18.79;59.04
70815;BME280;58428;49.478;10.986;2022-08-03T02:35:31;98447.19;;;18.64;60.91
70815;BME280;58428;49.478;10.986;2022-08-03T02:38:03;98444.47;;;18.64;59.91
70815;BME280;58428;49.478;10.986;2022-08-03T02:40:30;98445.28;;;18.64;59.69
70815;BME280;58428;49.478;10.986;2022-08-03T02:43:04;98449.19;;;18.67;59.86
70815;BME280;58428;49.478;10.986;2022-08-03T02:45:34;98446.81;;;18.65;59.84
70815;BME280;58428;49.478;10.986;2022-08-03T02:48:03;98454.13;;;18.51;61.13
70815;BME280;58428;49.478;10.986;2022-08-03T02:50:30;98444.59;;;18.38;61.13
70815;BME280;58428;49.478;10.986;2022-08-03T02:52:57;98443.84;;;18.41;60.74
70815;BME280;58428;49.478;10.986;2022-08-03T02:55:25;98442.63;;;18.35;61.67
70815;BME280;58428;49.478;10.986;2022-08-03T02:57:51;98442.53;;;18.28;61.49
70815;BME280;58428;49.478;10.986;2022-08-03T03:00:17;98455.09;;;18.33;61.31
70815;BME280;58428;49.478;10.986;2022-08-03T03:02:44;98448.91;;;18.39;61.08
70815;BME280;58428;49.478;10.986;2022-08-03T03:05:11;98447.28;;;18.35;61.81
70815;BME280;58428;49.478;10.986;2022-08-03T03:07:38;98444.19;;;18.36;61.27
70815;BME280;58428;49.478;10.986;2022-08-03T03:10:05;98452.75;;;18.35;61.49
70815;BME280;58428;49.478;10.986;2022-08-03T03:12:32;98448.38;;;18.27;61.81
70815;BME280;58428;49.478;10.986;2022-08-03T03:14:59;98448.31;;;18.20;62.03
70815;BME280;58428;49.478;10.986;2022-08-03T03:17:26;98453.00;;;18.19;62.09
70815;BME280;58428;49.478;10.986;2022-08-03T03:19:52;98447.09;;;18.17;61.90
70815;BME280;58428;49.478;10.986;2022-08-03T03:22:18;98448.34;;;18.23;61.63
70815;BME280;58428;49.478;10.986;2022-08-03T03:24:46;98448.78;;;18.25;61.49
70815;BME280;58428;49.478;10.986;2022-08-03T03:27:14;98451.94;;;18.31;61.51
70815;BME280;58428;49.478;10.986;2022-08-03T03:29:40;98450.31;;;18.26;62.22
70815;BME280;58428;49.478;10.986;2022-08-03T03:32:06;98441.34;;;18.26;61.48
70815;BME280;58428;49.478;10.986;2022-08-03T03:34:32;98443.28;;;18.25;61.23
70815;BME280;58428;49.478;10.986;2022-08-03T03:36:57;98449.13;;;18.24;61.31
70815;BME280;58428;49.478;10.986;2022-08-03T03:39:23;98454.97;;;18.22;61.37
70815;BME280;58428;49.478;10.986;2022-08-03T03:41:48;98448.56;;;18.11;62.80
70815;BME280;58428;49.478;10.986;2022-08-03T03:44:15;98441.75;;;17.99;64.23
70815;BME280;58428;49.478;10.986;2022-08-03T03:46:40;98451.09;;;17.94;63.34
70815;BME280;58428;49.478;10.986;2022-08-03T03:49:06;98453.38;;;17.92;63.18
70815;BME280;58428;49.478;10.986;2022-08-03T03:51:34;98449.81;;;17.88;64.16
70815;BME280;58428;49.478;10.986;2022-08-03T03:54:01;98457.63;;;17.86;64.42
70815;BME280;58428;49.478;10.986;2022-08-03T03:56:27;98456.75;;;17.79;65.00
70815;BME280;58428;49.478;10.986;2022-08-03T03:58:53;98456.72;;;17.75;65.31
70815;BME280;58428;49.478;10.986;2022-08-03T04:01:19;98460.56;;;17.71;66.43
70815;BME280;58428;49.478;10.986;2022-08-03T04:03:45;98456.22;;;17.70;65.47
70815;BME280;58428;49.478;10.986;2022-08-03T04:06:11;98449.97;;;17.69;65.58
70815;BME280;58428;49.478;10.986;2022-08-03T04:08:55;98452.72;;;17.69;66.82
70815;BME280;58428;49.478;10.986;2022-08-03T04:11:52;98456.66;;;17.72;65.59
70815;BME280;58428;49.478;10.986;2022-08-03T04:14:22;98460.63;;;17.78;65.10
70815;BME280;58428;49.478;10.986;2022-08-03T04:16:51;98456.75;;;17.79;65.00
70815;BME280;58428;49.478;10.986;2022-08-03T04:19:23;98460.41;;;17.90;64.04
70815;BME280;58428;49.478;10.986;2022-08-03T04:21:54;98462.69;;;17.84;64.91
70815;BME280;58428;49.478;10.986;2022-08-03T04:24:26;98459.94;;;17.84;64.98
70815;BME280;58428;49.478;10.986;2022-08-03T04:26:56;98463.47;;;17.85;64.39
70815;BME280;58428;49.478;10.986;2022-08-03T04:29:24;98467.38;;;17.84;64.58
70815;BME280;58428;49.478;10.986;2022-08-03T04:31:53;98468.13;;;17.81;65.16
70815;BME280;58428;49.478;10.986;2022-08-03T04:34:18;98474.28;;;17.74;65.95
70815;BME280;58428;49.478;10.986;2022-08-03T04:36:47;98474.59;;;17.69;66.93
70815;BME280;58428;49.478;10.986;2022-08-03T04:39:19;98470.81;;;17.77;65.89
70815;BME280;58428;49.478;10.986;2022-08-03T04:41:48;98474.19;;;17.68;66.48
70815;BME280;58428;49.478;10.986;2022-08-03T04:44:16;98474.66;;;17.73;65.96
70815;BME280;58428;49.478;10.986;2022-08-03T04:46:43;98475.56;;;17.84;65.30
70815;BME280;58428;49.478;10.986;2022-08-03T04:49:08;98471.34;;;17.90;64.88
70815;BME280;58428;49.478;10.986;2022-08-03T04:51:36;98473.69;;;17.88;65.17
70815;BME280;58428;49.478;10.986;2022-08-03T04:54:03;98474.00;;;17.83;66.11
70815;BME280;58428;49.478;10.986;2022-08-03T04:56:28;98479.09;;;17.84;65.16
70815;BME280;58428;49.478;10.986;2022-08-03T04:58:54;98477.47;;;17.80;65.55
70815;BME280;58428;49.478;10.986;2022-08-03T05:01:19;98477.13;;;17.81;65.97
70815;BME280;58428;49.478;10.986;2022-08-03T05:03:46;98475.28;;;17.89;65.02
70815;BME280;58428;49.478;10.986;2022-08-03T05:06:12;98479.31;;;17.98;64.79
70815;BME280;58428;49.478;10.986;2022-08-03T05:08:38;98482.19;;;18.08;64.25
70815;BME280;58428;49.478;10.986;2022-08-03T05:11:03;98487.38;;;18.17;64.25
70815;BME280;58428;49.478;10.986;2022-08-03T05:13:29;98480.41;;;18.23;63.85
70815;BME280;58428;49.478;10.986;2022-08-03T05:15:54;98477.78;;;18.30;63.85
70815;BME280;58428;49.478;10.986;2022-08-03T05:18:20;98481.78;;;18.39;63.57
70815;BME280;58428;49.478;10.986;2022-08-03T05:20:45;98485.81;;;18.48;63.19
70815;BME280;58428;49.478;10.986;2022-08-03T05:23:10;98481.94;;;18.53;63.18
70815;BME280;58428;49.478;10.986;2022-08-03T05:25:36;98492.56;;;18.58;63.08
70815;BME280;58428;49.478;10.986;2022-08-03T05:28:01;98494.19;;;18.62;62.68
70815;BME280;58428;49.478;10.986;2022-08-03T05:30:26;98490.31;;;18.67;62.86
70815;BME280;58428;49.478;10.986;2022-08-03T05:32:52;98491.97;;;18.75;62.68
70815;BME280;58428;49.478;10.986;2022-08-03T05:35:17;98490.44;;;18.80;62.43
70815;BME280;58428;49.478;10.986;2022-08-03T05:37:43;98493.59;;;18.82;62.59
70815;BME280;58428;49.478;10.986;2022-08-03T05:40:08;98494.06;;;18.88;62.41
70815;BME280;58428;49.478;10.986;2022-08-03T05:42:38;98490.94;;;18.93;62.26
70815;BME280;58428;49.478;10.986;2022-08-03T05:45:04;98492.63;;;18.97;62.28
70815;BME280;58428;49.478;10.986;2022-08-03T05:47:39;98492.97;;;18.96;62.33
70815;BME280;58428;49.478;10.986;2022-08-03T05:50:06;98493.03;;;18.99;62.29
70815;BME280;58428;49.478;10.986;2022-08-03T05:52:32;98491.50;;;19.05;62.52
70815;BME280;58428;49.478;10.986;2022-08-03T05:54:57;98499.41;;;19.14;62.36
70815;BME280;58428;49.478;10.986;2022-08-03T05:57:22;98495.09;;;19.16;62.10
70815;BME280;58428;49.478;10.986;2022-08-03T05:59:49;98496.38;;;19.25;62.10
70815;BME280;58428;49.478;10.986;2022-08-03T06:02:14;98495.25;;;19.30;61.88
70815;BME280;58428;49.478;10.986;2022-08-03T06:04:40;98500.75;;;19.33;62.25
70815;BME280;58428;49.478;10.986;2022-08-03T06:07:06;98501.97;;;19.36;62.25
70815;BME280;58428;49.478;10.986;2022-08-03T06:09:31;98496.88;;;19.41;62.01
70815;BME280;58428;49.478;10.986;2022-08-03T06:11:56;98498.53;;;19.49;62.07
70815;BME280;58428;49.478;10.986;2022-08-03T06:14:22;98504.47;;;19.58;61.89
70815;BME280;58428;49.478;10.986;2022-08-03T06:16:47;98509.25;;;19.68;61.86
70815;BME280;58428;49.478;10.986;2022-08-03T06:19:12;98504.97;;;19.74;61.92
70815;BME280;58428;49.478;10.986;2022-08-03T06:21:38;98502.66;;;19.79;61.42
70815;BME280;58428;49.478;10.986;2022-08-03T06:24:03;98497.66;;;19.88;61.33
70815;BME280;58428;49.478;10.986;2022-08-03T06:26:28;98506.72;;;19.99;61.25
70815;BME280;58428;49.478;10.986;2022-08-03T06:28:54;98495.78;;;20.13;60.90
70815;BME280;58428;49.478;10.986;2022-08-03T06:31:24;98497.41;;;20.24;60.54
70815;BME280;58428;49.478;10.986;2022-08-03T06:33:52;98495.13;;;20.36;60.29
70815;BME280;58428;49.478;10.986;2022-08-03T06:36:17;98495.19;;;20.50;60.26
70815;BME280;58428;49.478;10.986;2022-08-03T06:38:42;98497.59;;;20.62;60.02
70815;BME280;58428;49.478;10.986;2022-08-03T06:41:08;98485.84;;;20.75;60.13
70815;BME280;58428;49.478;10.986;2022-08-03T06:43:33;98483.50;;;20.88;59.78
70815;BME280;58428;49.478;10.986;2022-08-03T06:46:02;98489.44;;;21.00;59.59
70815;BME280;58428;49.478;10.986;2022-08-03T06:48:27;98487.47;;;21.14;59.46
70815;BME280;58428;49.478;10.986;2022-08-03T06:50:53;98486.69;;;21.28;58.85
70815;BME280;58428;49.478;10.986;2022-08-03T06:53:18;98487.88;;;21.41;58.46
70815;BME280;58428;49.478;10.986;2022-08-03T06:55:43;98494.94;;;21.52;58.35
70815;BME280;58428;49.478;10.986;2022-08-03T06:58:09;98496.91;;;21.62;58.31
70815;BME280;58428;49.478;10.986;2022-08-03T07:00:34;98496.53;;;21.74;57.97
70815;BME280;58428;49.478;10.986;2022-08-03T07:03:00;98497.66;;;21.86;57.60
70815;BME280;58428;49.478;10.986;2022-08-03T07:05:25;98494.09;;;21.96;57.51
70815;BME280;58428;49.478;10.986;2022-08-03T07:07:54;98490.50;;;22.10;57.56
70815;BME280;58428;49.478;10.986;2022-08-03T07:10:20;98490.50;;;22.20;57.10
70815;BME280;58428;49.478;10.986;2022-08-03T07:12:46;98485.72;;;22.31;56.41
70815;BME280;58428;49.478;10.986;2022-08-03T07:15:11;98492.78;;;22.42;56.25
70815;BME280;58428;49.478;10.986;2022-08-03T07:17:37;98491.16;;;22.52;56.49
70815;BME280;58428;49.478;10.986;2022-08-03T07:20:05;98493.84;;;22.62;55.72
70815;BME280;58428;49.478;10.986;2022-08-03T07:22:31;98486.72;;;22.71;55.35
70815;BME280;58428;49.478;10.986;2022-08-03T07:24:57;98485.88;;;22.81;54.84
70815;BME280;58428;49.478;10.986;2022-08-03T07:27:22;98483.06;;;22.91;54.77
70815;BME280;58428;49.478;10.986;2022-08-03T07:29:48;98483.00;;;23.02;54.46
70815;BME280;58428;49.478;10.986;2022-08-03T07:32:13;98484.06;;;23.15;54.48
70815;BME280;58428;49.478;10.986;2022-08-03T07:34:39;98483.53;;;23.33;53.67
70815;BME280;58428;49.478;10.986;2022-08-03T07:37:04;98481.06;;;23.46;53.95
70815;BME280;58428;49.478;10.986;2022-08-03T07:39:29;98484.53;;;23.60;52.63
70815;BME280;58428;49.478;10.986;2022-08-03T07:41:55;98480.00;;;23.76;52.37
70815;BME280;58428;49.478;10.986;2022-08-03T07:44:20;98477.56;;;23.85;52.59
70815;BME280;58428;49.478;10.986;2022-08-03T07:46:47;98485.28;;;24.01;51.64
70815;BME280;58428;49.478;10.986;2022-08-03T07:49:12;98480.78;;;24.13;51.56
70815;BME280;58428;49.478;10.986;2022-08-03T07:51:38;98487.00;;;24.24;51.74
70815;BME280;58428;49.478;10.986;2022-08-03T07:54:03;98483.34;;;24.34;51.74
70815;BME280;58428;49.478;10.986;2022-08-03T07:56:29;98479.66;;;24.44;51.50
70815;BME280;58428;49.478;10.986;2022-08-03T07:58:55;98481.50;;;24.54;51.53
70815;BME280;58428;49.478;10.986;2022-08-03T08:01:21;98479.34;;;24.68;49.49
70815;BME280;58428;49.478;10.986;2022-08-03T08:03:47;98478.78;;;24.80;49.83
70815;BME280;58428;49.478;10.986;2022-08-03T08:06:13;98470.31;;;24.90;49.31
70815;BME280;58428;49.478;10.986;2022-08-03T08:08:39;98464.28;;;24.99;49.87
70815;BME280;58428;49.478;10.986;2022-08-03T08:11:05;98464.91;;;25.10;49.62
70815;BME280;58428;49.478;10.986;2022-08-03T08:13:30;98460.00;;;25.20;49.25
70815;BME280;58428;49.478;10.986;2022-08-03T08:15:56;98462.16;;;25.32;49.11
70815;BME280;58428;49.478;10.986;2022-08-03T08:18:21;98464.69;;;25.46;47.71
70815;BME280;58428;49.478;10.986;2022-08-03T08:20:48;98452.22;;;25.61;48.27
70815;BME280;58428;49.478;10.986;2022-08-03T08:23:14;98461.44;;;25.74;47.06
70815;BME280;58428;49.478;10.986;2022-08-03T08:25:39;98459.28;;;25.85;46.59
70815;BME280;58428;49.478;10.986;2022-08-03T08:28:05;98462.63;;;25.95;46.71
70815;BME280;58428;49.478;10.986;2022-08-03T08:30:32;98456.47;;;26.07;47.02
70815;BME280;58428;49.478;10.986;2022-08-03T08:32:57;98449.88;;;26.21;46.70
70815;BME280;58428;49.478;10.986;2022-08-03T08:35:23;98450.09;;;26.29;46.25
70815;BME280;58428;49.478;10.986;2022-08-03T08:37:49;98449.84;;;26.40;45.92
70815;BME280;58428;49.478;10.986;2022-08-03T08:40:14;98444.16;;;26.47;45.48
70815;BME280;58428;49.478;10.986;2022-08-03T08:42:41;98446.00;;;26.53;45.56
70815;BME280;58428;49.478;10.986;2022-08-03T08:45:07;98451.34;;;26.64;45.66
70815;BME280;58428;49.478;10.986;2022-08-03T08:47:37;98445.13;;;26.75;45.15
70815;BME280;58428;49.478;10.986;2022-08-03T08:50:03;98446.03;;;26.88;45.21
70815;BME280;58428;49.478;10.986;2022-08-03T08:52:29;98445.34;;;27.00;44.78
70815;BME280;58428;49.478;10.986;2022-08-03T08:54:57;98453.09;;;27.08;44.26
70815;BME280;58428;49.478;10.986;2022-08-03T08:57:28;98446.94;;;27.17;44.17
70815;BME280;58428;49.478;10.986;2022-08-03T08:59:55;98436.34;;;27.28;43.29
70815;BME280;58428;49.478;10.986;2022-08-03T09:02:27;98432.53;;;27.38;42.64
70815;BME280;58428;49.478;10.986;2022-08-03T09:04:53;98436.63;;;27.49;42.80
70815;BME280;58428;49.478;10.986;2022-08-03T09:07:19;98441.47;;;27.61;42.27
70815;BME280;58428;49.478;10.986;2022-08-03T09:09:44;98440.06;;;27.69;42.34
70815;BME280;58428;49.478;10.986;2022-08-03T09:12:10;98427.63;;;27.73;42.71
70815;BME280;58428;49.478;10.986;2022-08-03T09:14:35;98434.13;;;27.82;41.43
70815;BME280;58428;49.478;10.986;2022-08-03T09:17:02;98434.28;;;27.91;41.75
70815;BME280;58428;49.478;10.986;2022-08-03T09:19:29;98431.72;;;27.97;41.88
70815;BME280;58428;49.478;10.986;2022-08-03T09:22:08;98427.22;;;28.03;40.67
70815;BME280;58428;49.478;10.986;2022-08-03T09:24:35;98425.72;;;28.14;40.35
70815;BME280;58428;49.478;10.986;2022-08-03T09:27:05;98424.63;;;28.24;40.09
70815;BME280;58428;49.478;10.986;2022-08-03T09:29:32;98421.56;;;28.34;39.16
70815;BME280;58428;49.478;10.986;2022-08-03T09:32:00;98421.66;;;28.43;40.44
70815;BME280;58428;49.478;10.986;2022-08-03T09:34:27;98412.56;;;28.55;39.30
70815;BME280;58428;49.478;10.986;2022-08-03T09:36:53;98422.41;;;28.59;39.18
70815;BME280;58428;49.478;10.986;2022-08-03T09:39:20;98417.84;;;28.65;39.53
70815;BME280;58428;49.478;10.986;2022-08-03T09:42:13;98421.88;;;28.77;39.24
70815;BME280;58428;49.478;10.986;2022-08-03T09:44:47;98414.41;;;28.86;38.97
70815;BME280;58428;49.478;10.986;2022-08-03T09:47:16;98418.88;;;28.96;38.32
70815;BME280;58428;49.478;10.986;2022-08-03T09:49:59;98415.84;;;29.03;37.04
70815;BME280;58428;49.478;10.986;2022-08-03T09:52:37;98419.94;;;29.11;37.21
70815;BME280;58428;49.478;10.986;2022-08-03T09:55:11;98418.09;;;29.20;37.21
70815;BME280;58428;49.478;10.986;2022-08-03T09:57:37;98419.50;;;29.37;36.69
70815;BME280;58428;49.478;10.986;2022-08-03T10:00:12;98411.88;;;29.50;33.22
70815;BME280;58428;49.478;10.986;2022-08-03T10:02:40;98414.44;;;29.57;35.03
70815;BME280;58428;49.478;10.986;2022-08-03T10:05:07;98415.44;;;29.63;35.68
70815;BME280;58428;49.478;10.986;2022-08-03T10:07:46;98412.75;;;29.71;33.22
70815;BME280;58428;49.478;10.986;2022-08-03T10:10:12;98423.09;;;29.83;35.64
70815;BME280;58428;49.478;10.986;2022-08-03T10:12:40;98418.94;;;29.88;34.83
70815;BME280;58428;49.478;10.986;2022-08-03T10:15:06;98402.97;;;29.88;34.84
70815;BME280;58428;49.478;10.986;2022-08-03T10:17:32;98401.44;;;29.87;34.25
70815;BME280;58428;49.478;10.986;2022-08-03T10:19:58;98392.34;;;29.96;34.10
70815;BME280;58428;49.478;10.986;2022-08-03T10:22:31;98403.25;;;30.02;33.02
70815;BME280;58428;49.478;10.986;2022-08-03T10:27:37;98396.97;;;30.11;34.21
70815;BME280;58428;49.478;10.986;2022-08-03T10:30:06;98393.72;;;30.12;33.55
70815;BME280;58428;49.478;10.986;2022-08-03T10:35:12;98396.97;;;30.32;32.00
70815;BME280;58428;49.478;10.986;2022-08-03T10:40:18;98393.09;;;30.60;31.81
70815;BME280;58428;49.478;10.986;2022-08-03T10:42:48;98376.97;;;30.64;32.72
70815;BME280;58428;49.478;10.986;2022-08-03T10:45:19;98369.53;;;30.61;31.21
70815;BME280;58428;49.478;10.986;2022-08-03T10:47:50;98369.06;;;30.62;31.14
70815;BME280;58428;49.478;10.986;2022-08-03T10:50:16;98371.00;;;30.74;32.32
70815;BME280;58428;49.478;10.986;2022-08-03T10:53:02;98369.50;;;30.82;31.41
70815;BME280;58428;49.478;10.986;2022-08-03T10:56:05;98366.72;;;30.91;31.66
70815;BME280;58428;49.478;10.986;2022-08-03T11:01:11;98358.97;;;30.95;29.90
70815;BME280;58428;49.478;10.986;2022-08-03T11:06:29;98346.06;;;30.88;30.29
70815;BME280;58428;49.478;10.986;2022-08-03T11:11:36;98346.88;;;31.07;31.18
70815;BME280;58428;49.478;10.986;2022-08-03T11:14:07;98352.50;;;31.15;30.93
70815;BME280;58428;49.478;10.986;2022-08-03T11:16:35;98344.63;;;31.23;31.83
70815;BME280;58428;49.478;10.986;2022-08-03T11:19:07;98347.78;;;31.34;30.26
70815;BME280;58428;49.478;10.986;2022-08-03T11:29:53;98336.28;;;31.50;28.18
70815;BME280;58428;49.478;10.986;2022-08-03T11:35:12;98317.00;;;31.60;28.93
70815;BME280;58428;49.478;10.986;2022-08-03T11:40:47;98308.94;;;31.71;27.76
70815;BME280;58428;49.478;10.986;2022-08-03T11:46:06;98315.59;;;32.00;27.83
70815;BME280;58428;49.478;10.986;2022-08-03T11:48:36;98320.88;;;32.07;28.51
70815;BME280;58428;49.478;10.986;2022-08-03T11:51:07;98317.31;;;32.07;28.35
70815;BME280;58428;49.478;10.986;2022-08-03T11:53:43;98304.88;;;32.08;27.80
70815;BME280;58428;49.478;10.986;2022-08-03T11:56:08;98315.13;;;32.11;27.56
70815;BME280;58428;49.478;10.986;2022-08-03T11:58:33;98307.63;;;32.17;27.85
70815;BME280;58428;49.478;10.986;2022-08-03T12:01:04;98313.06;;;32.20;27.84
70815;BME280;58428;49.478;10.986;2022-08-03T12:03:31;98307.78;;;32.22;26.58
70815;BME280;58428;49.478;10.986;2022-08-03T12:05:57;98292.34;;;32.27;26.49
70815;BME280;58428;49.478;10.986;2022-08-03T12:10:50;98304.34;;;32.36;28.16
70815;BME280;58428;49.478;10.986;2022-08-03T12:13:17;98299.53;;;32.28;26.16
70815;BME280;58428;49.478;10.986;2022-08-03T12:15:43;98296.78;;;32.10;27.06
70815;BME280;58428;49.478;10.986;2022-08-03T12:18:16;98300.03;;;32.17;26.27
70815;BME280;58428;49.478;10.986;2022-08-03T12:20:42;98291.34;;;32.06;26.19
70815;BME280;58428;49.478;10.986;2022-08-03T12:23:08;98301.16;;;32.02;26.24
70815;BME280;58428;49.478;10.986;2022-08-03T12:25:35;98293.56;;;31.85;25.43
70815;BME280;58428;49.478;10.986;2022-08-03T12:28:16;98290.13;;;31.90;27.11
70815;BME280;58428;49.478;10.986;2022-08-03T12:30:44;98288.53;;;32.06;26.35
70815;BME280;58428;49.478;10.986;2022-08-03T12:33:24;98292.09;;;32.16;26.21
70815;BME280;58428;49.478;10.986;2022-08-03T12:36:07;98285.97;;;32.26;25.86
70815;BME280;58428;49.478;10.986;2022-08-03T12:38:35;98280.53;;;32.31;26.22
70815;BME280;58428;49.478;10.986;2022-08-03T12:41:09;98283.66;;;32.33;26.46
70815;BME280;58428;49.478;10.986;2022-08-03T12:43:50;98280.84;;;32.42;26.25
70815;BME280;58428;49.478;10.986;2022-08-03T12:46:18;98273.94;;;32.52;25.37
70815;BME280;58428;49.478;10.986;2022-08-03T12:49:05;98277.66;;;32.58;26.72
70815;BME280;58428;49.478;10.986;2022-08-03T12:54:18;98274.44;;;32.74;27.69
70815;BME280;58428;49.478;10.986;2022-08-03T12:59:27;98259.78;;;32.79;27.58
70815;BME280;58428;49.478;10.986;2022-08-03T13:01:53;98261.97;;;32.84;25.98
70815;BME280;58428;49.478;10.986;2022-08-03T13:04:33;98259.28;;;32.89;25.85
70815;BME280;58428;49.478;10.986;2022-08-03T13:07:09;98244.50;;;32.89;25.41
70815;BME280;58428;49.478;10.986;2022-08-03T13:09:44;98259.22;;;32.98;25.47
70815;BME280;58428;49.478;10.986;2022-08-03T13:12:16;98240.69;;;33.01;26.40
70815;BME280;58428;49.478;10.986;2022-08-03T13:15:16;98248.88;;;33.04;26.19
70815;BME280;58428;49.478;10.986;2022-08-03T13:17:35;98248.59;;;33.02;26.24
70815;BME280;58428;49.478;10.986;2022-08-03T13:20:00;98242.22;;;33.02;26.50
70815;BME280;58428;49.478;10.986;2022-08-03T13:22:26;98247.53;;;33.00;26.66
70815;BME280;58428;49.478;10.986;2022-08-03T13:24:55;98245.19;;;32.98;27.50
70815;BME280;58428;49.478;10.986;2022-08-03T13:27:22;98246.38;;;33.06;27.25
70815;BME280;58428;49.478;10.986;2022-08-03T13:29:47;98249.59;;;33.13;27.29
70815;BME280;58428;49.478;10.986;2022-08-03T13:32:13;98245.69;;;33.20;26.38
70815;BME280;58428;49.478;10.986;2022-08-03T13:34:38;98244.53;;;33.26;26.58
70815;BME280;58428;49.478;10.986;2022-08-03T13:37:04;98238.34;;;33.22;26.47
70815;BME280;58428;49.478;10.986;2022-08-03T13:39:30;98243.47;;;33.24;27.01
70815;BME280;58428;49.478;10.986;2022-08-03T13:41:55;98237.34;;;33.25;25.66
70815;BME280;58428;49.478;10.986;2022-08-03T13:44:21;98237.66;;;33.27;25.87
70815;BME280;58428;49.478;10.986;2022-08-03T13:46:47;98234.63;;;33.40;26.25